Nebo, Arkansas
Current Conditions -  °F | °C
As of 3:53 AM on Monday 22 Dec 2014 (Local Time) from KPBF Reporting Station
Overcast Overcast  
Wind Chill: 44°   Ceiling: 800
Heat Index: 49°   Visibility: 10mi
Dew Point: 46°   Wind: 14mph
Humidity: 90%   Direction: 170°S
Pressure: 29.81"   Gusts: NA
Location:  33.924°N, 91.8685°W
Report Text: KPBF 220953Z AUTO 17012KT 10SM OVC008 09/08 A2981 RMK AO2 SLP093 T00940078
Loading
Personal Weather Stations






























Interactive Weather Map New forecast layout! Learn more

10-Day Weather Forecast

Advertisements
Track Severe Weather on mobile